Flugplatz Landau-Ebenberg (UL)

Hier findest Du alle Informationen zum Flugplatz Landau-Ebenberg (UL).

Informationen für Piloten zum Flugplatz Landau-Ebenberg

Hier findest Du alle relevanten Informationen, die Du als Pilot benötigst, um Landau-Ebenberg anzufliegen.

Flugplatz: Landau-Ebenberg ICAO-Code: UL Flugplatz
Frequenz Turm: 128,860 Mhz GAFOR Gebiet: 44
Frequenz Ground: 128,860 Mhz Mogas: nein
Platzrunde: S 1300 ft Landegebühr: -
Platzhöhe: 525 ft Sunrise: 03:20 Uhr UTC
Pisten: 10/28 - 600 m x 30 m, GRAS Sunset: 19:38 Uhr UTC

Flugwetter am Flugplatz Landau-Ebenberg

Die METAR Information stammen aus EDFM (42.94 km entfernt).

METAR Code:
2024/05/03 19:50
EDFM 031950Z 20004KT CAVOK 14/07 Q1016

Flugschulen am Flugplatz Landau-Ebenberg

Am Flugplatz Landau-Ebenberg gibt es leider keine Flugschule.

Benachbarte Flugplätze und Flugschulen

Es gibt 20 weitere Flugplätze in einem Umkreis von 50 km um den Flugplatz Landau-Ebenberg.

Jetzt anmelden

Passwort vergessen

Umfrage Archiv

Wie häufig haltet Ihr die Halbkreisflugregel ein?

Eher häufig!
36 %
Immer!
30.7 %
Hin und wieder!
16.7 %
Nie!
9.5 %
Eher selten!
7.2 %
Stimmen: 264 | Diskussion
Anzeige: Roland Aircraft
Statistik Alle Mitglieder

Aktuell sind 27 Besucher online, davon 1 Mitglied und 26 Gäste.


Mitglieder online:
b3nn0 

Anzeige: EasyVFR